Terminal Aerodrome Forecast
Issued by NWS

Home | Current Version | Previous Version | Text Only | Print | Product List | Glossary On
Versions: 1 2 3 4 5 6 7 8 9 10 11 12 13 14
767
FTUS46 KSTO 110525
TAFMHR
TAF
KMHR 110525Z 1106/1206 33005KT P6SM BKN250
     FM111400 VRB03KT 4SM BR BKN250
     FM111800 VRB03KT P6SM SCT250=

USA.gov is the U.S. government's official web portal to all federal, state and local government web resources and services.